createdAt,value
2023-03-19T00:00:23.520Z,6.20
2023-03-19T00:03:13.132Z,6.10
2023-03-19T00:06:03.437Z,6.10
2023-03-19T00:08:52.955Z,6.00
2023-03-19T00:11:44.391Z,6.00
2023-03-19T00:14:34.050Z,6.00
2023-03-19T00:17:23.664Z,5.90
2023-03-19T00:20:15.262Z,5.90
2023-03-19T00:23:05.231Z,5.80
2023-03-19T00:25:56.448Z,5.80
2023-03-19T00:28:53.133Z,5.80
2023-03-19T00:31:43.392Z,5.80
2023-03-19T00:34:32.906Z,5.70
2023-03-19T00:37:22.352Z,5.70
2023-03-19T00:40:13.647Z,5.70
2023-03-19T00:43:03.372Z,5.70
2023-03-19T00:45:54.659Z,5.70
2023-03-19T00:48:44.323Z,5.70
2023-03-19T00:51:33.799Z,5.60
2023-03-19T00:54:23.633Z,5.60
2023-03-19T00:57:14.192Z,5.60
2023-03-19T01:00:04.296Z,5.60
2023-03-19T01:02:55.334Z,5.70
2023-03-19T01:05:44.990Z,5.70
2023-03-19T01:08:34.899Z,5.70
2023-03-19T01:11:24.843Z,5.70
2023-03-19T01:14:14.626Z,5.70
2023-03-19T01:17:04.227Z,5.70
2023-03-19T01:19:57.265Z,5.60
2023-03-19T01:22:47.936Z,5.60
2023-03-19T01:25:38.166Z,5.60
2023-03-19T01:28:27.937Z,5.70
2023-03-19T01:31:17.967Z,5.70
2023-03-19T01:34:07.797Z,5.70
2023-03-19T01:36:59.022Z,5.70
2023-03-19T01:39:48.554Z,5.60
2023-03-19T01:42:54.137Z,5.50
2023-03-19T01:45:45.261Z,5.40
2023-03-19T01:48:40.935Z,5.30
2023-03-19T01:51:33.178Z,5.20
2023-03-19T01:54:26.567Z,5.20
2023-03-19T01:57:17.906Z,5.20
2023-03-19T02:00:15.051Z,5.20
2023-03-19T02:03:05.468Z,5.20
2023-03-19T02:05:57.726Z,5.20
2023-03-19T02:08:48.237Z,5.20
2023-03-19T02:11:46.936Z,5.20
2023-03-19T02:14:31.392Z,5.10
2023-03-19T02:17:21.842Z,5.20
2023-03-19T02:20:19.118Z,5.20
2023-03-19T02:23:23.696Z,5.10
2023-03-19T02:26:16.303Z,5.00
2023-03-19T02:29:06.888Z,4.80
2023-03-19T02:31:56.992Z,4.80
2023-03-19T02:34:47.355Z,4.60
2023-03-19T02:37:36.734Z,4.60
2023-03-19T02:40:31.830Z,4.50
2023-03-19T02:43:24.542Z,4.50
2023-03-19T02:46:15.750Z,4.30
2023-03-19T02:49:05.636Z,4.30
2023-03-19T02:51:55.428Z,4.20
2023-03-19T02:54:44.871Z,4.20
2023-03-19T02:57:34.517Z,4.20
2023-03-19T03:00:26.147Z,4.10
2023-03-19T03:03:15.843Z,4.10
2023-03-19T03:06:05.796Z,4.00
2023-03-19T03:08:55.564Z,4.00
2023-03-19T03:11:45.289Z,3.90
2023-03-19T03:14:35.416Z,3.80
2023-03-19T03:17:26.378Z,3.80
2023-03-19T03:20:20.130Z,3.70
2023-03-19T03:23:09.587Z,3.70
2023-03-19T03:25:59.429Z,3.70
2023-03-19T03:28:49.192Z,3.60
2023-03-19T03:31:39.343Z,3.60
2023-03-19T03:34:30.167Z,3.50
2023-03-19T03:37:20.083Z,3.50
2023-03-19T03:40:11.024Z,3.50
2023-03-19T03:43:00.781Z,3.50
2023-03-19T03:45:50.483Z,3.60
2023-03-19T03:48:39.943Z,3.70
2023-03-19T03:51:31.371Z,3.70
2023-03-19T03:54:21.782Z,3.70
2023-03-19T03:57:11.886Z,3.70
2023-03-19T04:00:01.395Z,3.80
2023-03-19T04:02:51.135Z,3.90
2023-03-19T04:05:41.082Z,3.90
2023-03-19T04:08:32.190Z,4.00
2023-03-19T04:11:22.199Z,4.10
2023-03-19T04:14:12.242Z,4.10
2023-03-19T04:17:01.798Z,4.10
2023-03-19T04:19:51.590Z,4.10
2023-03-19T04:22:40.969Z,4.10
2023-03-19T04:25:32.064Z,4.10
2023-03-19T04:28:21.533Z,4.10
2023-03-19T04:31:11.880Z,4.10
2023-03-19T04:34:01.491Z,4.20
2023-03-19T04:36:52.242Z,4.10
2023-03-19T04:39:41.720Z,4.00
2023-03-19T04:42:32.938Z,4.00
2023-03-19T04:45:22.521Z,3.90
2023-03-19T04:48:12.422Z,3.80
2023-03-19T04:51:02.963Z,3.80
2023-03-19T04:53:52.745Z,3.70
2023-03-19T04:56:42.556Z,3.70
2023-03-19T04:59:33.783Z,3.60
2023-03-19T05:02:23.762Z,3.60
2023-03-19T05:05:14.184Z,3.60
2023-03-19T05:08:04.016Z,3.50
2023-03-19T05:10:53.581Z,3.50
2023-03-19T05:13:43.232Z,3.50
2023-03-19T05:16:36.012Z,3.50
2023-03-19T05:19:25.620Z,3.50
2023-03-19T05:22:15.339Z,3.60
2023-03-19T05:25:04.864Z,3.60
2023-03-19T05:27:54.749Z,3.60
2023-03-19T05:30:44.624Z,3.70
2023-03-19T05:33:35.597Z,3.80
2023-03-19T05:36:27.071Z,3.90
2023-03-19T05:39:16.469Z,3.90
2023-03-19T05:42:06.328Z,4.10
2023-03-19T05:44:55.812Z,4.30
2023-03-19T05:47:45.788Z,4.50
2023-03-19T05:50:37.160Z,4.70
2023-03-19T05:53:26.611Z,4.80
2023-03-19T05:56:16.606Z,5.10
2023-03-19T05:59:06.987Z,5.20
2023-03-19T06:01:56.606Z,5.30
2023-03-19T06:04:46.178Z,5.40
2023-03-19T06:07:37.707Z,5.40
2023-03-19T06:10:27.542Z,5.40
2023-03-19T06:13:17.074Z,5.40
2023-03-19T06:16:07.737Z,5.60
2023-03-19T06:18:57.588Z,5.80
2023-03-19T06:21:47.064Z,5.90
2023-03-19T06:24:38.225Z,6.00
2023-03-19T06:27:27.716Z,6.20
2023-03-19T06:30:17.623Z,6.20
2023-03-19T06:33:07.327Z,6.30
2023-03-19T06:36:00.402Z,6.30
2023-03-19T06:38:50.737Z,6.40
2023-03-19T06:41:42.725Z,6.40
2023-03-19T06:44:32.695Z,6.50
2023-03-19T06:47:22.163Z,6.40
2023-03-19T06:50:13.301Z,6.40
2023-03-19T06:53:02.928Z,6.40
2023-03-19T06:55:52.425Z,6.50
2023-03-19T06:58:43.985Z,6.50
2023-03-19T07:01:34.915Z,6.70
2023-03-19T07:04:25.240Z,6.70
2023-03-19T07:07:14.751Z,6.90
2023-03-19T07:10:05.306Z,7.00
2023-03-19T07:12:54.931Z,7.10
2023-03-19T07:15:45.982Z,7.20
2023-03-19T07:18:35.930Z,7.10
2023-03-19T07:21:25.806Z,7.10
2023-03-19T07:24:16.197Z,7.20
2023-03-19T07:27:06.121Z,7.50
2023-03-19T07:29:56.329Z,7.40
2023-03-19T07:32:47.389Z,7.60
2023-03-19T07:35:37.636Z,7.70
2023-03-19T07:38:27.333Z,7.90
2023-03-19T07:41:17.101Z,8.10
2023-03-19T07:44:07.202Z,8.00
2023-03-19T07:46:56.699Z,8.00
2023-03-19T07:49:47.646Z,8.10
2023-03-19T07:52:37.221Z,8.10
2023-03-19T07:55:27.720Z,8.30
2023-03-19T07:58:17.293Z,8.30
2023-03-19T08:01:07.753Z,8.50
2023-03-19T08:03:57.207Z,8.60
2023-03-19T08:06:48.418Z,8.70
2023-03-19T08:09:38.326Z,8.80
2023-03-19T08:12:28.308Z,8.70
2023-03-19T08:15:18.357Z,8.90
2023-03-19T08:18:08.629Z,9.00
2023-03-19T08:20:58.179Z,9.10
2023-03-19T08:23:49.345Z,9.30
2023-03-19T08:26:39.490Z,9.60
2023-03-19T08:29:29.044Z,9.80
2023-03-19T08:32:18.993Z,9.80
2023-03-19T08:35:09.776Z,10.00
2023-03-19T08:37:59.654Z,10.10
2023-03-19T08:40:50.639Z,10.30
2023-03-19T08:43:40.308Z,10.50
2023-03-19T08:46:30.066Z,10.70
2023-03-19T08:49:19.526Z,10.90
2023-03-19T08:52:09.644Z,11.10
2023-03-19T08:54:59.265Z,11.10
2023-03-19T08:57:50.155Z,11.10
2023-03-19T09:00:39.863Z,11.30
2023-03-19T09:03:29.516Z,11.40
2023-03-19T09:06:19.080Z,11.40
2023-03-19T09:09:08.476Z,11.60
2023-03-19T09:11:58.517Z,11.90
2023-03-19T09:14:49.931Z,12.20
2023-03-19T09:17:39.578Z,12.20
2023-03-19T09:20:36.998Z,12.50
2023-03-19T09:23:34.043Z,12.50
2023-03-19T09:26:31.930Z,12.50
2023-03-19T09:29:27.296Z,12.50
2023-03-19T09:32:20.266Z,12.50
2023-03-19T09:35:10.702Z,12.70
2023-03-19T09:38:01.777Z,12.60
2023-03-19T09:40:56.603Z,12.60
2023-03-19T09:44:01.248Z,12.70
2023-03-19T09:46:56.578Z,12.50
2023-03-19T09:49:49.936Z,12.70
2023-03-19T09:52:45.796Z,12.80
2023-03-19T09:55:43.157Z,12.70
2023-03-19T09:58:35.340Z,13.00
2023-03-19T10:01:28.748Z,13.10
2023-03-19T10:04:45.279Z,13.30
2023-03-19T10:07:57.467Z,13.50
2023-03-19T10:11:11.027Z,13.50
2023-03-19T10:14:14.525Z,13.50
2023-03-19T10:17:07.359Z,13.60
2023-03-19T10:20:01.959Z,13.70
2023-03-19T10:22:56.623Z,13.60
2023-03-19T10:25:47.259Z,13.70
2023-03-19T10:28:38.090Z,14.10
2023-03-19T10:31:30.102Z,14.30
2023-03-19T10:34:33.680Z,14.50
2023-03-19T10:37:26.606Z,14.80
2023-03-19T10:40:24.284Z,14.70
2023-03-19T10:43:20.206Z,14.70
2023-03-19T10:46:16.102Z,14.80
2023-03-19T10:49:05.933Z,14.70
2023-03-19T10:51:58.210Z,14.30
2023-03-19T10:54:48.036Z,14.20
2023-03-19T10:57:43.479Z,14.40
2023-03-19T11:00:35.888Z,14.40
2023-03-19T11:03:33.869Z,14.60
2023-03-19T11:06:27.920Z,14.60
2023-03-19T11:09:23.392Z,14.70
2023-03-19T11:12:21.642Z,14.90
2023-03-19T11:15:22.767Z,14.90
2023-03-19T11:18:21.298Z,14.90
2023-03-19T11:21:25.321Z,14.90
2023-03-19T11:24:15.350Z,14.90
2023-03-19T11:27:05.279Z,14.80
2023-03-19T11:29:55.104Z,14.90
2023-03-19T11:33:28.089Z,15.10
2023-03-19T11:36:24.722Z,14.90
2023-03-19T11:39:28.058Z,15.00
2023-03-19T11:42:44.081Z,15.10
2023-03-19T11:45:40.639Z,15.30
2023-03-19T11:48:45.859Z,15.10
2023-03-19T11:51:41.400Z,15.10
2023-03-19T11:54:40.567Z,15.00
2023-03-19T11:57:46.999Z,14.80
2023-03-19T12:00:41.982Z,14.80
2023-03-19T12:04:06.923Z,15.00
2023-03-19T12:07:05.736Z,15.00
2023-03-19T12:10:05.332Z,15.10
2023-03-19T12:13:00.409Z,15.10
2023-03-19T12:15:56.956Z,15.00
2023-03-19T12:19:18.458Z,15.10
2023-03-19T12:22:19.866Z,15.10
2023-03-19T12:25:24.367Z,15.20
2023-03-19T12:28:26.364Z,15.20
2023-03-19T12:31:51.151Z,15.00
2023-03-19T12:34:45.801Z,15.10
2023-03-19T12:37:43.266Z,15.20
2023-03-19T12:40:39.537Z,15.20
2023-03-19T12:43:34.257Z,15.40
2023-03-19T12:46:30.607Z,15.50
2023-03-19T12:49:24.847Z,15.60
2023-03-19T12:52:22.928Z,15.60
2023-03-19T12:55:22.334Z,15.50
2023-03-19T12:58:20.787Z,15.50
2023-03-19T13:01:15.093Z,15.60
2023-03-19T13:04:10.405Z,15.70
2023-03-19T13:07:04.632Z,15.60
2023-03-19T13:10:03.556Z,15.60
2023-03-19T13:12:56.941Z,15.50
2023-03-19T13:15:51.215Z,15.40
2023-03-19T13:18:48.748Z,15.30
2023-03-19T13:21:41.963Z,15.30
2023-03-19T13:24:38.045Z,15.20
2023-03-19T13:27:33.584Z,15.20
2023-03-19T13:30:28.812Z,15.20
2023-03-19T13:33:26.724Z,15.10
2023-03-19T13:36:17.893Z,15.00
2023-03-19T13:39:16.439Z,15.10
2023-03-19T13:42:26.001Z,15.00
2023-03-19T13:45:37.820Z,15.00
2023-03-19T13:48:40.289Z,15.10
2023-03-19T13:51:33.630Z,15.10
2023-03-19T13:54:34.623Z,15.10
2023-03-19T13:57:36.822Z,15.00
2023-03-19T14:01:02.709Z,15.00
2023-03-19T14:03:59.899Z,15.00
2023-03-19T14:06:53.212Z,14.90
2023-03-19T14:09:45.489Z,15.00
2023-03-19T14:12:38.893Z,15.10
2023-03-19T14:15:31.607Z,15.10
2023-03-19T14:18:26.247Z,15.10
2023-03-19T14:21:21.969Z,15.10
2023-03-19T14:27:48.619Z,15.10
2023-03-19T14:30:43.139Z,15.10
2023-03-19T14:33:43.038Z,15.30
2023-03-19T14:36:34.346Z,15.30
2023-03-19T14:39:27.905Z,15.40
2023-03-19T14:42:24.106Z,15.40
2023-03-19T14:45:43.790Z,15.40
2023-03-19T14:49:06.198Z,15.30
2023-03-19T14:52:06.624Z,15.30
2023-03-19T14:55:01.277Z,15.40
2023-03-19T14:57:51.190Z,15.40
2023-03-19T15:00:45.245Z,15.50
2023-03-19T15:03:38.411Z,15.30
2023-03-19T15:06:35.931Z,15.20
2023-03-19T15:09:31.913Z,15.20
2023-03-19T15:12:54.213Z,15.10
2023-03-19T15:16:05.247Z,15.00
2023-03-19T15:18:56.229Z,15.00
2023-03-19T15:21:51.649Z,14.80
2023-03-19T15:24:42.875Z,14.70
2023-03-19T15:27:32.840Z,14.60
2023-03-19T15:30:24.825Z,14.50
2023-03-19T15:33:38.880Z,14.40
2023-03-19T15:36:33.854Z,14.30
2023-03-19T15:39:32.231Z,14.20
2023-03-19T15:42:24.682Z,14.10
2023-03-19T15:45:17.452Z,13.90
2023-03-19T15:48:16.404Z,13.80
2023-03-19T15:51:10.133Z,13.70
2023-03-19T15:54:02.448Z,13.60
2023-03-19T15:56:56.198Z,13.50
2023-03-19T15:59:56.636Z,13.40
2023-03-19T16:02:54.807Z,13.30
2023-03-19T16:05:46.420Z,13.20
2023-03-19T16:08:40.248Z,13.10
2023-03-19T16:11:40.166Z,13.00
2023-03-19T16:14:43.471Z,12.80
2023-03-19T16:17:39.348Z,12.70
2023-03-19T16:20:35.267Z,12.50
2023-03-19T16:23:32.006Z,12.40
2023-03-19T16:26:28.364Z,12.20
2023-03-19T16:29:26.891Z,12.00
2023-03-19T16:32:27.024Z,11.90
2023-03-19T16:35:22.080Z,11.80
2023-03-19T16:38:17.503Z,11.60
2023-03-19T16:41:21.840Z,11.50
2023-03-19T16:44:23.566Z,11.40
2023-03-19T16:47:15.844Z,11.30
2023-03-19T16:50:08.939Z,11.20
2023-03-19T16:53:01.500Z,11.00
2023-03-19T16:55:54.916Z,11.00
2023-03-19T16:58:49.196Z,10.80
2023-03-19T17:01:41.297Z,10.70
2023-03-19T17:04:34.632Z,10.60
2023-03-19T17:07:38.109Z,10.40
2023-03-19T17:10:33.277Z,10.30
2023-03-19T17:13:29.084Z,10.20
2023-03-19T17:16:20.556Z,10.10
2023-03-19T17:19:20.738Z,10.10
2023-03-19T17:22:18.440Z,9.90
2023-03-19T17:25:21.145Z,9.80
2023-03-19T17:28:12.740Z,9.80
2023-03-19T17:31:04.763Z,9.70
2023-03-19T17:34:00.127Z,9.60
2023-03-19T17:36:55.785Z,9.60
2023-03-19T17:39:56.560Z,9.50
2023-03-19T17:42:49.864Z,9.40
2023-03-19T17:45:44.201Z,9.30
2023-03-19T17:48:36.104Z,9.30
2023-03-19T17:51:30.238Z,9.20
2023-03-19T17:54:23.081Z,9.20
2023-03-19T17:57:17.414Z,9.10
2023-03-19T18:00:13.775Z,9.10
2023-03-19T18:03:05.979Z,9.00
2023-03-19T18:05:59.564Z,9.00
2023-03-19T18:08:50.293Z,8.90
2023-03-19T18:11:44.053Z,8.90
2023-03-19T18:14:45.209Z,8.90
2023-03-19T18:17:46.887Z,8.80
2023-03-19T18:20:42.306Z,8.90
2023-03-19T18:23:33.886Z,8.90
2023-03-19T18:26:26.180Z,8.90
2023-03-19T18:29:22.084Z,8.90
2023-03-19T18:32:19.282Z,8.80
2023-03-19T18:35:17.572Z,8.80
2023-03-19T18:38:21.386Z,8.70
2023-03-19T18:41:18.466Z,8.70
2023-03-19T18:44:13.538Z,8.60
2023-03-19T18:47:10.422Z,8.50
2023-03-19T18:50:03.219Z,8.50
2023-03-19T18:52:59.529Z,8.40
2023-03-19T18:55:51.711Z,8.30
2023-03-19T18:58:44.014Z,8.30
2023-03-19T19:01:47.376Z,8.20
2023-03-19T19:04:41.715Z,8.10
2023-03-19T19:07:38.565Z,8.10
2023-03-19T19:10:36.281Z,8.00
2023-03-19T19:13:31.721Z,8.10
2023-03-19T19:16:25.067Z,8.10
2023-03-19T19:19:20.638Z,8.10
2023-03-19T19:22:17.402Z,8.10
2023-03-19T19:25:12.111Z,8.00
2023-03-19T19:28:08.147Z,8.00
2023-03-19T19:31:01.178Z,8.00
2023-03-19T19:33:52.385Z,8.00
2023-03-19T19:36:45.292Z,7.90
2023-03-19T19:39:42.838Z,8.00
2023-03-19T19:42:37.480Z,8.00
2023-03-19T19:45:39.337Z,7.90
2023-03-19T19:48:42.333Z,7.90
2023-03-19T19:51:35.208Z,7.90
2023-03-19T19:54:27.228Z,8.00
2023-03-19T19:57:25.288Z,8.00
2023-03-19T20:00:34.984Z,8.00
2023-03-19T20:03:29.699Z,8.00
2023-03-19T20:06:22.855Z,8.00
2023-03-19T20:09:18.376Z,8.00
2023-03-19T20:12:21.134Z,8.00
2023-03-19T20:15:25.307Z,7.90
2023-03-19T20:18:21.843Z,7.90
2023-03-19T20:21:17.235Z,7.80
2023-03-19T20:24:12.967Z,7.80
2023-03-19T20:27:05.839Z,7.80
2023-03-19T20:30:02.928Z,7.80
2023-03-19T20:32:54.845Z,7.70
2023-03-19T20:35:47.678Z,7.60
2023-03-19T20:38:41.759Z,7.50
2023-03-19T20:41:34.241Z,7.40
2023-03-19T20:44:29.341Z,7.30
2023-03-19T20:47:22.455Z,7.20
2023-03-19T20:50:25.334Z,7.10
2023-03-19T20:53:16.867Z,7.00
2023-03-19T20:56:13.368Z,6.80
2023-03-19T20:59:05.035Z,6.70
2023-03-19T21:01:57.527Z,6.60
2023-03-19T21:04:49.736Z,6.60
2023-03-19T21:07:41.152Z,6.50
2023-03-19T21:10:36.680Z,6.40
2023-03-19T21:13:33.566Z,6.40
2023-03-19T21:16:26.333Z,6.40
2023-03-19T21:19:17.325Z,6.40
2023-03-19T21:22:08.016Z,6.40
2023-03-19T21:25:06.126Z,6.30
2023-03-19T21:27:59.160Z,6.30
2023-03-19T21:30:51.342Z,6.20
2023-03-19T21:33:44.683Z,6.20
2023-03-19T21:36:34.801Z,6.10
2023-03-19T21:39:24.452Z,6.20
2023-03-19T21:42:19.399Z,6.10
2023-03-19T21:45:16.632Z,6.10
2023-03-19T21:48:28.974Z,6.00
2023-03-19T21:51:18.865Z,6.00
2023-03-19T21:54:08.308Z,5.90
2023-03-19T21:56:58.250Z,5.90
2023-03-19T21:59:48.430Z,5.80
2023-03-19T22:02:41.848Z,5.70
2023-03-19T22:05:33.289Z,5.70
2023-03-19T22:08:25.109Z,5.70
2023-03-19T22:11:18.651Z,5.60
2023-03-19T22:14:14.575Z,5.60
2023-03-19T22:17:04.102Z,5.60
2023-03-19T22:19:53.808Z,5.60
2023-03-19T22:22:44.725Z,5.60
2023-03-19T22:25:39.975Z,5.50
2023-03-19T22:28:34.080Z,5.50
2023-03-19T22:31:24.451Z,5.50
2023-03-19T22:34:16.824Z,5.50
2023-03-19T22:37:28.149Z,5.50
2023-03-19T22:40:20.322Z,5.50
2023-03-19T22:43:20.764Z,5.40
2023-03-19T22:46:12.693Z,5.40
2023-03-19T22:49:11.996Z,5.40
2023-03-19T22:52:02.214Z,5.40
2023-03-19T22:54:53.533Z,5.30
2023-03-19T22:57:44.716Z,5.30
2023-03-19T23:00:34.313Z,5.30
2023-03-19T23:03:26.230Z,5.20
2023-03-19T23:06:29.162Z,5.20
2023-03-19T23:09:22.787Z,5.20
2023-03-19T23:12:13.198Z,5.10
2023-03-19T23:15:04.521Z,5.00
2023-03-19T23:17:57.394Z,5.00
2023-03-19T23:20:48.659Z,5.00
2023-03-19T23:23:38.212Z,4.90
2023-03-19T23:26:30.653Z,4.90
2023-03-19T23:29:24.524Z,4.90
2023-03-19T23:32:16.122Z,4.80
2023-03-19T23:35:16.560Z,4.80
2023-03-19T23:38:07.320Z,4.80
2023-03-19T23:40:57.073Z,4.90
2023-03-19T23:43:47.204Z,5.00
2023-03-19T23:46:37.349Z,5.10
2023-03-19T23:49:31.514Z,5.10
2023-03-19T23:52:21.081Z,5.20
2023-03-19T23:55:11.590Z,5.30
2023-03-19T23:58:01.707Z,5.40
